sensor_id;sensor_type;location;lat;lon;timestamp;P1;durP1;ratioP1;P2;durP2;ratioP2
37905;SDS011;23739;51.448;6.674;2023-06-22T00:00:40;13.13;;;9.80;;
37905;SDS011;23739;51.448;6.674;2023-06-22T00:03:07;13.68;;;8.30;;
37905;SDS011;23739;51.448;6.674;2023-06-22T00:05:33;12.32;;;7.97;;
37905;SDS011;23739;51.448;6.674;2023-06-22T00:08:02;16.13;;;9.15;;
37905;SDS011;23739;51.448;6.674;2023-06-22T00:10:28;15.25;;;8.38;;
37905;SDS011;23739;51.448;6.674;2023-06-22T00:12:54;12.05;;;8.75;;
37905;SDS011;23739;51.448;6.674;2023-06-22T00:15:20;13.80;;;7.97;;
37905;SDS011;23739;51.448;6.674;2023-06-22T00:17:46;14.25;;;8.75;;
37905;SDS011;23739;51.448;6.674;2023-06-22T00:20:12;10.98;;;8.65;;
37905;SDS011;23739;51.448;6.674;2023-06-22T00:22:39;16.83;;;9.82;;
37905;SDS011;23739;51.448;6.674;2023-06-22T00:25:06;15.27;;;9.60;;
37905;SDS011;23739;51.448;6.674;2023-06-22T00:27:32;16.30;;;11.07;;
37905;SDS011;23739;51.448;6.674;2023-06-22T00:29:58;16.48;;;11.52;;
37905;SDS011;23739;51.448;6.674;2023-06-22T00:32:24;20.30;;;11.80;;
37905;SDS011;23739;51.448;6.674;2023-06-22T00:34:50;16.95;;;10.70;;
37905;SDS011;23739;51.448;6.674;2023-06-22T00:37:17;13.90;;;9.60;;
37905;SDS011;23739;51.448;6.674;2023-06-22T00:39:43;13.02;;;9.02;;
37905;SDS011;23739;51.448;6.674;2023-06-22T00:42:09;15.73;;;11.60;;
37905;SDS011;23739;51.448;6.674;2023-06-22T00:44:36;13.35;;;10.10;;
37905;SDS011;23739;51.448;6.674;2023-06-22T00:47:02;16.13;;;9.95;;
37905;SDS011;23739;51.448;6.674;2023-06-22T00:49:28;15.07;;;10.07;;
37905;SDS011;23739;51.448;6.674;2023-06-22T00:51:55;17.83;;;11.00;;
37905;SDS011;23739;51.448;6.674;2023-06-22T00:54:23;13.85;;;10.18;;
37905;SDS011;23739;51.448;6.674;2023-06-22T00:56:50;13.85;;;10.23;;
37905;SDS011;23739;51.448;6.674;2023-06-22T00:59:17;15.15;;;11.25;;
37905;SDS011;23739;51.448;6.674;2023-06-22T01:01:44;15.65;;;11.80;;
37905;SDS011;23739;51.448;6.674;2023-06-22T01:04:10;18.15;;;10.45;;
37905;SDS011;23739;51.448;6.674;2023-06-22T01:06:38;16.38;;;11.32;;
37905;SDS011;23739;51.448;6.674;2023-06-22T01:09:12;16.80;;;10.77;;
37905;SDS011;23739;51.448;6.674;2023-06-22T01:11:52;15.15;;;10.38;;
37905;SDS011;23739;51.448;6.674;2023-06-22T01:14:20;17.73;;;9.98;;
37905;SDS011;23739;51.448;6.674;2023-06-22T01:16:49;14.93;;;9.07;;
37905;SDS011;23739;51.448;6.674;2023-06-22T01:21:43;13.65;;;9.50;;
37905;SDS011;23739;51.448;6.674;2023-06-22T01:24:18;12.63;;;8.50;;
37905;SDS011;23739;51.448;6.674;2023-06-22T01:29:48;10.45;;;7.40;;
37905;SDS011;23739;51.448;6.674;2023-06-22T01:32:14;11.65;;;8.15;;
37905;SDS011;23739;51.448;6.674;2023-06-22T01:34:40;12.70;;;9.75;;
37905;SDS011;23739;51.448;6.674;2023-06-22T01:37:07;13.15;;;8.60;;
37905;SDS011;23739;51.448;6.674;2023-06-22T01:39:33;10.93;;;8.02;;
37905;SDS011;23739;51.448;6.674;2023-06-22T01:41:59;13.98;;;9.55;;
37905;SDS011;23739;51.448;6.674;2023-06-22T01:44:26;14.07;;;8.82;;
37905;SDS011;23739;51.448;6.674;2023-06-22T01:46:53;14.63;;;9.45;;
37905;SDS011;23739;51.448;6.674;2023-06-22T01:49:19;14.90;;;9.80;;
37905;SDS011;23739;51.448;6.674;2023-06-22T01:51:45;15.32;;;9.27;;
37905;SDS011;23739;51.448;6.674;2023-06-22T01:54:11;15.18;;;8.30;;
37905;SDS011;23739;51.448;6.674;2023-06-22T01:56:38;13.30;;;9.10;;
37905;SDS011;23739;51.448;6.674;2023-06-22T02:01:40;12.90;;;8.52;;
37905;SDS011;23739;51.448;6.674;2023-06-22T02:04:13;14.07;;;9.82;;
37905;SDS011;23739;51.448;6.674;2023-06-22T02:09:07;10.00;;;8.30;;
37905;SDS011;23739;51.448;6.674;2023-06-22T02:11:35;14.50;;;11.02;;
37905;SDS011;23739;51.448;6.674;2023-06-22T02:14:02;15.70;;;10.80;;
37905;SDS011;23739;51.448;6.674;2023-06-22T02:16:29;16.55;;;11.02;;
37905;SDS011;23739;51.448;6.674;2023-06-22T02:18:57;13.57;;;10.13;;
37905;SDS011;23739;51.448;6.674;2023-06-22T02:21:27;15.75;;;10.32;;
37905;SDS011;23739;51.448;6.674;2023-06-22T02:23:53;21.08;;;12.30;;
37905;SDS011;23739;51.448;6.674;2023-06-22T02:26:19;16.45;;;11.98;;
37905;SDS011;23739;51.448;6.674;2023-06-22T02:28:45;16.95;;;11.93;;
37905;SDS011;23739;51.448;6.674;2023-06-22T02:31:11;16.92;;;11.02;;
37905;SDS011;23739;51.448;6.674;2023-06-22T02:33:37;12.77;;;10.52;;
37905;SDS011;23739;51.448;6.674;2023-06-22T02:36:03;14.90;;;10.52;;
37905;SDS011;23739;51.448;6.674;2023-06-22T02:38:30;16.73;;;9.95;;
37905;SDS011;23739;51.448;6.674;2023-06-22T02:40:58;15.73;;;10.15;;
37905;SDS011;23739;51.448;6.674;2023-06-22T02:43:25;14.48;;;10.98;;
37905;SDS011;23739;51.448;6.674;2023-06-22T02:45:51;17.17;;;10.80;;
37905;SDS011;23739;51.448;6.674;2023-06-22T02:48:17;16.63;;;10.77;;
37905;SDS011;23739;51.448;6.674;2023-06-22T02:50:43;14.13;;;10.57;;
37905;SDS011;23739;51.448;6.674;2023-06-22T02:53:10;13.75;;;12.15;;
37905;SDS011;23739;51.448;6.674;2023-06-22T02:55:36;16.05;;;11.52;;
37905;SDS011;23739;51.448;6.674;2023-06-22T02:58:02;13.20;;;11.43;;
37905;SDS011;23739;51.448;6.674;2023-06-22T03:00:30;18.90;;;12.07;;
37905;SDS011;23739;51.448;6.674;2023-06-22T03:02:56;18.10;;;12.75;;
37905;SDS011;23739;51.448;6.674;2023-06-22T03:05:23;15.18;;;13.35;;
37905;SDS011;23739;51.448;6.674;2023-06-22T03:07:49;19.73;;;12.50;;
37905;SDS011;23739;51.448;6.674;2023-06-22T03:10:16;17.60;;;11.65;;
37905;SDS011;23739;51.448;6.674;2023-06-22T03:12:42;17.90;;;13.50;;
37905;SDS011;23739;51.448;6.674;2023-06-22T03:15:09;17.20;;;10.90;;
37905;SDS011;23739;51.448;6.674;2023-06-22T03:17:36;20.67;;;13.55;;
37905;SDS011;23739;51.448;6.674;2023-06-22T03:20:04;12.20;;;10.88;;
37905;SDS011;23739;51.448;6.674;2023-06-22T03:22:39;16.20;;;12.55;;
37905;SDS011;23739;51.448;6.674;2023-06-22T03:25:06;13.35;;;11.98;;
37905;SDS011;23739;51.448;6.674;2023-06-22T03:27:34;19.10;;;13.07;;
37905;SDS011;23739;51.448;6.674;2023-06-22T03:30:00;16.27;;;13.57;;
37905;SDS011;23739;51.448;6.674;2023-06-22T03:32:27;17.42;;;14.10;;
37905;SDS011;23739;51.448;6.674;2023-06-22T03:34:53;18.13;;;13.13;;
37905;SDS011;23739;51.448;6.674;2023-06-22T03:37:19;21.15;;;14.93;;
37905;SDS011;23739;51.448;6.674;2023-06-22T03:39:45;21.88;;;14.48;;
37905;SDS011;23739;51.448;6.674;2023-06-22T03:42:11;16.55;;;13.68;;
37905;SDS011;23739;51.448;6.674;2023-06-22T03:44:37;17.73;;;14.70;;
37905;SDS011;23739;51.448;6.674;2023-06-22T03:47:04;17.13;;;12.52;;
37905;SDS011;23739;51.448;6.674;2023-06-22T03:49:32;14.77;;;11.95;;
37905;SDS011;23739;51.448;6.674;2023-06-22T03:51:59;25.08;;;13.52;;
37905;SDS011;23739;51.448;6.674;2023-06-22T03:54:25;17.55;;;13.75;;
37905;SDS011;23739;51.448;6.674;2023-06-22T03:56:52;16.23;;;11.85;;
37905;SDS011;23739;51.448;6.674;2023-06-22T03:59:19;17.00;;;12.23;;
37905;SDS011;23739;51.448;6.674;2023-06-22T04:01:45;18.42;;;12.82;;
37905;SDS011;23739;51.448;6.674;2023-06-22T04:04:11;17.35;;;13.90;;
37905;SDS011;23739;51.448;6.674;2023-06-22T04:06:38;18.50;;;14.65;;
37905;SDS011;23739;51.448;6.674;2023-06-22T04:09:06;18.95;;;14.20;;
37905;SDS011;23739;51.448;6.674;2023-06-22T04:11:32;15.55;;;13.90;;
37905;SDS011;23739;51.448;6.674;2023-06-22T04:13:58;22.10;;;14.82;;
37905;SDS011;23739;51.448;6.674;2023-06-22T04:16:24;13.57;;;11.77;;
37905;SDS011;23739;51.448;6.674;2023-06-22T04:18:50;17.70;;;13.55;;
37905;SDS011;23739;51.448;6.674;2023-06-22T04:21:16;20.80;;;16.10;;
37905;SDS011;23739;51.448;6.674;2023-06-22T04:23:44;16.20;;;13.50;;
37905;SDS011;23739;51.448;6.674;2023-06-22T04:26:11;18.08;;;14.40;;
37905;SDS011;23739;51.448;6.674;2023-06-22T04:28:37;20.42;;;15.02;;
37905;SDS011;23739;51.448;6.674;2023-06-22T04:31:03;17.58;;;12.85;;
37905;SDS011;23739;51.448;6.674;2023-06-22T04:33:29;18.83;;;12.90;;
37905;SDS011;23739;51.448;6.674;2023-06-22T04:35:55;19.05;;;13.70;;
37905;SDS011;23739;51.448;6.674;2023-06-22T04:38:29;21.20;;;15.00;;
37905;SDS011;23739;51.448;6.674;2023-06-22T04:40:58;16.08;;;12.80;;
37905;SDS011;23739;51.448;6.674;2023-06-22T04:43:26;20.85;;;13.25;;
37905;SDS011;23739;51.448;6.674;2023-06-22T04:45:56;19.42;;;13.55;;
37905;SDS011;23739;51.448;6.674;2023-06-22T04:48:28;16.40;;;13.57;;
37905;SDS011;23739;51.448;6.674;2023-06-22T04:50:57;22.33;;;14.98;;
37905;SDS011;23739;51.448;6.674;2023-06-22T04:53:27;17.95;;;13.63;;
37905;SDS011;23739;51.448;6.674;2023-06-22T04:55:54;22.35;;;12.90;;
37905;SDS011;23739;51.448;6.674;2023-06-22T04:58:20;22.90;;;13.40;;
37905;SDS011;23739;51.448;6.674;2023-06-22T05:00:47;21.27;;;14.20;;
37905;SDS011;23739;51.448;6.674;2023-06-22T05:03:16;18.55;;;15.30;;
37905;SDS011;23739;51.448;6.674;2023-06-22T05:05:43;16.85;;;13.75;;
37905;SDS011;23739;51.448;6.674;2023-06-22T05:08:09;16.73;;;13.63;;
37905;SDS011;23739;51.448;6.674;2023-06-22T05:10:35;15.75;;;13.57;;
37905;SDS011;23739;51.448;6.674;2023-06-22T05:13:01;16.88;;;13.88;;
37905;SDS011;23739;51.448;6.674;2023-06-22T05:15:27;16.83;;;13.48;;
37905;SDS011;23739;51.448;6.674;2023-06-22T05:17:56;17.75;;;13.98;;
37905;SDS011;23739;51.448;6.674;2023-06-22T05:20:23;14.73;;;13.20;;
37905;SDS011;23739;51.448;6.674;2023-06-22T05:22:49;16.95;;;13.70;;
37905;SDS011;23739;51.448;6.674;2023-06-22T05:25:15;14.27;;;12.85;;
37905;SDS011;23739;51.448;6.674;2023-06-22T05:27:41;16.95;;;12.45;;
37905;SDS011;23739;51.448;6.674;2023-06-22T05:30:09;19.15;;;14.55;;
37905;SDS011;23739;51.448;6.674;2023-06-22T05:32:36;15.60;;;11.98;;
37905;SDS011;23739;51.448;6.674;2023-06-22T05:35:03;15.93;;;14.27;;
37905;SDS011;23739;51.448;6.674;2023-06-22T05:37:29;15.85;;;13.73;;
37905;SDS011;23739;51.448;6.674;2023-06-22T05:39:55;15.52;;;13.65;;
37905;SDS011;23739;51.448;6.674;2023-06-22T05:42:22;15.07;;;13.55;;
37905;SDS011;23739;51.448;6.674;2023-06-22T05:44:50;17.08;;;13.80;;
37905;SDS011;23739;51.448;6.674;2023-06-22T05:47:18;14.77;;;13.27;;
37905;SDS011;23739;51.448;6.674;2023-06-22T05:49:44;13.70;;;12.05;;
37905;SDS011;23739;51.448;6.674;2023-06-22T05:52:10;13.50;;;12.15;;
37905;SDS011;23739;51.448;6.674;2023-06-22T05:54:36;13.85;;;11.80;;
37905;SDS011;23739;51.448;6.674;2023-06-22T05:57:04;13.65;;;10.70;;
37905;SDS011;23739;51.448;6.674;2023-06-22T05:59:30;18.48;;;13.63;;
37905;SDS011;23739;51.448;6.674;2023-06-22T06:01:56;13.68;;;12.18;;
37905;SDS011;23739;51.448;6.674;2023-06-22T06:04:22;14.55;;;12.48;;
37905;SDS011;23739;51.448;6.674;2023-06-22T06:06:48;14.98;;;12.90;;
37905;SDS011;23739;51.448;6.674;2023-06-22T06:09:14;15.40;;;13.13;;
37905;SDS011;23739;51.448;6.674;2023-06-22T06:11:40;15.68;;;13.32;;
37905;SDS011;23739;51.448;6.674;2023-06-22T06:14:07;16.42;;;14.25;;
37905;SDS011;23739;51.448;6.674;2023-06-22T06:16:33;14.05;;;12.38;;
37905;SDS011;23739;51.448;6.674;2023-06-22T06:18:59;14.90;;;13.15;;
37905;SDS011;23739;51.448;6.674;2023-06-22T06:21:25;15.88;;;13.77;;
37905;SDS011;23739;51.448;6.674;2023-06-22T06:23:51;16.17;;;13.75;;
37905;SDS011;23739;51.448;6.674;2023-06-22T06:26:18;16.30;;;14.57;;
37905;SDS011;23739;51.448;6.674;2023-06-22T06:28:55;21.02;;;15.35;;
37905;SDS011;23739;51.448;6.674;2023-06-22T06:31:21;15.30;;;12.43;;
37905;SDS011;23739;51.448;6.674;2023-06-22T06:33:48;22.02;;;14.82;;
37905;SDS011;23739;51.448;6.674;2023-06-22T06:36:14;14.80;;;13.27;;
37905;SDS011;23739;51.448;6.674;2023-06-22T06:38:40;17.90;;;12.77;;
37905;SDS011;23739;51.448;6.674;2023-06-22T06:41:07;16.20;;;12.93;;
37905;SDS011;23739;51.448;6.674;2023-06-22T06:43:33;17.70;;;12.88;;
37905;SDS011;23739;51.448;6.674;2023-06-22T06:45:59;15.27;;;13.60;;
37905;SDS011;23739;51.448;6.674;2023-06-22T06:48:25;13.20;;;11.88;;
37905;SDS011;23739;51.448;6.674;2023-06-22T06:50:51;16.65;;;14.65;;
37905;SDS011;23739;51.448;6.674;2023-06-22T06:53:17;16.42;;;13.15;;
37905;SDS011;23739;51.448;6.674;2023-06-22T06:55:43;14.63;;;13.13;;
37905;SDS011;23739;51.448;6.674;2023-06-22T06:58:10;13.27;;;11.98;;
37905;SDS011;23739;51.448;6.674;2023-06-22T07:00:38;14.63;;;12.13;;
37905;SDS011;23739;51.448;6.674;2023-06-22T07:06:04;14.02;;;11.43;;
37905;SDS011;23739;51.448;6.674;2023-06-22T07:08:30;15.13;;;12.63;;
37905;SDS011;23739;51.448;6.674;2023-06-22T07:10:56;12.55;;;10.88;;
37905;SDS011;23739;51.448;6.674;2023-06-22T07:13:22;15.90;;;13.15;;
37905;SDS011;23739;51.448;6.674;2023-06-22T07:15:48;17.77;;;12.70;;
37905;SDS011;23739;51.448;6.674;2023-06-22T07:18:14;14.52;;;13.00;;
37905;SDS011;23739;51.448;6.674;2023-06-22T07:20:40;15.55;;;12.68;;
37905;SDS011;23739;51.448;6.674;2023-06-22T07:23:06;17.95;;;13.90;;
37905;SDS011;23739;51.448;6.674;2023-06-22T07:25:32;14.52;;;13.02;;
37905;SDS011;23739;51.448;6.674;2023-06-22T07:28:08;17.58;;;13.43;;
37905;SDS011;23739;51.448;6.674;2023-06-22T07:30:35;12.68;;;11.38;;
37905;SDS011;23739;51.448;6.674;2023-06-22T07:33:01;16.02;;;14.23;;
37905;SDS011;23739;51.448;6.674;2023-06-22T07:35:32;16.48;;;13.88;;
37905;SDS011;23739;51.448;6.674;2023-06-22T07:37:58;18.95;;;14.10;;
37905;SDS011;23739;51.448;6.674;2023-06-22T07:40:24;15.23;;;12.43;;
37905;SDS011;23739;51.448;6.674;2023-06-22T07:42:51;16.48;;;12.68;;
37905;SDS011;23739;51.448;6.674;2023-06-22T07:45:18;14.70;;;12.73;;
37905;SDS011;23739;51.448;6.674;2023-06-22T07:47:44;20.20;;;12.15;;
37905;SDS011;23739;51.448;6.674;2023-06-22T07:50:10;14.05;;;12.65;;
37905;SDS011;23739;51.448;6.674;2023-06-22T07:52:36;14.82;;;13.23;;
37905;SDS011;23739;51.448;6.674;2023-06-22T07:55:02;17.90;;;13.88;;
37905;SDS011;23739;51.448;6.674;2023-06-22T07:57:29;14.38;;;11.95;;
37905;SDS011;23739;51.448;6.674;2023-06-22T08:00:05;16.45;;;12.40;;
37905;SDS011;23739;51.448;6.674;2023-06-22T08:02:42;18.70;;;14.00;;
37905;SDS011;23739;51.448;6.674;2023-06-22T08:05:09;16.48;;;12.90;;
37905;SDS011;23739;51.448;6.674;2023-06-22T08:07:36;18.83;;;14.90;;
37905;SDS011;23739;51.448;6.674;2023-06-22T08:10:03;16.98;;;14.00;;
37905;SDS011;23739;51.448;6.674;2023-06-22T08:12:29;20.35;;;14.77;;
37905;SDS011;23739;51.448;6.674;2023-06-22T08:14:55;18.42;;;16.17;;
37905;SDS011;23739;51.448;6.674;2023-06-22T08:17:22;16.20;;;13.18;;
37905;SDS011;23739;51.448;6.674;2023-06-22T08:19:49;19.63;;;15.15;;
37905;SDS011;23739;51.448;6.674;2023-06-22T08:22:15;18.52;;;16.55;;
37905;SDS011;23739;51.448;6.674;2023-06-22T08:24:41;17.90;;;16.02;;
37905;SDS011;23739;51.448;6.674;2023-06-22T08:27:07;18.25;;;16.13;;
37905;SDS011;23739;51.448;6.674;2023-06-22T08:29:34;18.73;;;16.02;;
37905;SDS011;23739;51.448;6.674;2023-06-22T08:32:01;20.85;;;16.83;;
37905;SDS011;23739;51.448;6.674;2023-06-22T08:34:27;22.55;;;16.02;;
37905;SDS011;23739;51.448;6.674;2023-06-22T08:36:53;22.38;;;16.80;;
37905;SDS011;23739;51.448;6.674;2023-06-22T08:39:23;19.65;;;16.50;;
37905;SDS011;23739;51.448;6.674;2023-06-22T08:41:49;17.77;;;15.95;;
37905;SDS011;23739;51.448;6.674;2023-06-22T08:44:18;17.45;;;15.65;;
37905;SDS011;23739;51.448;6.674;2023-06-22T08:46:44;17.95;;;15.63;;
37905;SDS011;23739;51.448;6.674;2023-06-22T08:49:10;19.48;;;15.65;;
37905;SDS011;23739;51.448;6.674;2023-06-22T08:51:36;17.98;;;15.57;;
37905;SDS011;23739;51.448;6.674;2023-06-22T08:54:03;18.80;;;15.52;;
37905;SDS011;23739;51.448;6.674;2023-06-22T08:56:30;20.10;;;14.20;;
37905;SDS011;23739;51.448;6.674;2023-06-22T08:58:56;28.35;;;15.50;;
37905;SDS011;23739;51.448;6.674;2023-06-22T09:01:22;27.65;;;19.83;;
37905;SDS011;23739;51.448;6.674;2023-06-22T09:03:48;20.75;;;16.40;;
37905;SDS011;23739;51.448;6.674;2023-06-22T09:06:20;22.53;;;17.13;;
37905;SDS011;23739;51.448;6.674;2023-06-22T09:08:46;21.73;;;16.35;;
37905;SDS011;23739;51.448;6.674;2023-06-22T09:11:12;24.33;;;18.77;;
37905;SDS011;23739;51.448;6.674;2023-06-22T09:13:38;21.40;;;16.13;;
37905;SDS011;23739;51.448;6.674;2023-06-22T09:16:05;20.83;;;17.05;;
37905;SDS011;23739;51.448;6.674;2023-06-22T09:18:31;22.55;;;15.77;;
37905;SDS011;23739;51.448;6.674;2023-06-22T09:20:57;19.45;;;15.85;;
37905;SDS011;23739;51.448;6.674;2023-06-22T09:23:24;21.23;;;16.65;;
37905;SDS011;23739;51.448;6.674;2023-06-22T09:25:50;18.85;;;15.63;;
37905;SDS011;23739;51.448;6.674;2023-06-22T09:28:16;17.80;;;14.07;;
37905;SDS011;23739;51.448;6.674;2023-06-22T09:30:42;19.80;;;16.90;;
37905;SDS011;23739;51.448;6.674;2023-06-22T09:33:09;23.48;;;16.88;;
37905;SDS011;23739;51.448;6.674;2023-06-22T09:35:35;17.58;;;15.55;;
37905;SDS011;23739;51.448;6.674;2023-06-22T09:38:02;23.92;;;17.60;;
37905;SDS011;23739;51.448;6.674;2023-06-22T09:40:28;22.58;;;18.00;;
37905;SDS011;23739;51.448;6.674;2023-06-22T09:42:54;15.57;;;13.85;;
37905;SDS011;23739;51.448;6.674;2023-06-22T09:45:23;19.08;;;15.27;;
37905;SDS011;23739;51.448;6.674;2023-06-22T09:47:53;16.25;;;14.15;;
37905;SDS011;23739;51.448;6.674;2023-06-22T09:50:19;16.13;;;14.25;;
37905;SDS011;23739;51.448;6.674;2023-06-22T09:52:45;22.63;;;16.45;;
37905;SDS011;23739;51.448;6.674;2023-06-22T09:55:15;18.42;;;14.80;;
37905;SDS011;23739;51.448;6.674;2023-06-22T09:57:43;17.40;;;15.65;;
37905;SDS011;23739;51.448;6.674;2023-06-22T10:00:09;15.77;;;14.13;;
37905;SDS011;23739;51.448;6.674;2023-06-22T10:02:38;16.65;;;14.73;;
37905;SDS011;23739;51.448;6.674;2023-06-22T10:05:04;21.88;;;15.80;;
37905;SDS011;23739;51.448;6.674;2023-06-22T10:07:30;16.58;;;14.88;;
37905;SDS011;23739;51.448;6.674;2023-06-22T10:09:58;19.13;;;16.10;;
37905;SDS011;23739;51.448;6.674;2023-06-22T10:12:25;17.15;;;15.35;;
37905;SDS011;23739;51.448;6.674;2023-06-22T10:14:51;16.67;;;14.75;;
37905;SDS011;23739;51.448;6.674;2023-06-22T10:17:17;19.23;;;15.35;;
37905;SDS011;23739;51.448;6.674;2023-06-22T10:19:44;19.25;;;15.43;;
37905;SDS011;23739;51.448;6.674;2023-06-22T10:22:11;18.85;;;16.92;;
37905;SDS011;23739;51.448;6.674;2023-06-22T10:24:38;22.40;;;18.52;;
37905;SDS011;23739;51.448;6.674;2023-06-22T10:27:09;20.02;;;16.27;;
37905;SDS011;23739;51.448;6.674;2023-06-22T10:29:35;23.45;;;15.48;;
37905;SDS011;23739;51.448;6.674;2023-06-22T10:32:02;23.60;;;17.27;;
37905;SDS011;23739;51.448;6.674;2023-06-22T10:34:28;22.58;;;18.67;;
37905;SDS011;23739;51.448;6.674;2023-06-22T10:36:57;20.88;;;17.80;;
37905;SDS011;23739;51.448;6.674;2023-06-22T10:39:23;22.50;;;17.30;;
37905;SDS011;23739;51.448;6.674;2023-06-22T10:41:49;20.45;;;17.40;;
37905;SDS011;23739;51.448;6.674;2023-06-22T10:44:15;22.52;;;15.40;;
37905;SDS011;23739;51.448;6.674;2023-06-22T10:46:42;18.73;;;16.02;;
37905;SDS011;23739;51.448;6.674;2023-06-22T10:49:09;20.05;;;17.35;;
37905;SDS011;23739;51.448;6.674;2023-06-22T10:51:35;17.70;;;13.73;;
37905;SDS011;23739;51.448;6.674;2023-06-22T10:54:01;21.55;;;17.38;;
37905;SDS011;23739;51.448;6.674;2023-06-22T10:56:29;17.42;;;14.82;;
37905;SDS011;23739;51.448;6.674;2023-06-22T10:58:55;20.88;;;17.58;;
37905;SDS011;23739;51.448;6.674;2023-06-22T11:01:21;15.70;;;14.07;;
37905;SDS011;23739;51.448;6.674;2023-06-22T11:03:47;22.02;;;15.43;;
37905;SDS011;23739;51.448;6.674;2023-06-22T11:06:13;16.95;;;14.25;;
37905;SDS011;23739;51.448;6.674;2023-06-22T11:08:43;20.35;;;15.90;;
37905;SDS011;23739;51.448;6.674;2023-06-22T11:11:09;17.25;;;15.45;;
37905;SDS011;23739;51.448;6.674;2023-06-22T11:13:35;17.20;;;15.35;;
37905;SDS011;23739;51.448;6.674;2023-06-22T11:16:01;18.00;;;15.40;;
37905;SDS011;23739;51.448;6.674;2023-06-22T11:18:28;20.45;;;15.80;;
37905;SDS011;23739;51.448;6.674;2023-06-22T11:20:54;16.83;;;14.23;;
37905;SDS011;23739;51.448;6.674;2023-06-22T11:23:21;16.63;;;13.85;;
37905;SDS011;23739;51.448;6.674;2023-06-22T11:25:47;16.27;;;14.63;;
37905;SDS011;23739;51.448;6.674;2023-06-22T11:28:16;18.23;;;14.98;;
37905;SDS011;23739;51.448;6.674;2023-06-22T11:30:42;16.58;;;13.55;;
37905;SDS011;23739;51.448;6.674;2023-06-22T11:33:09;15.68;;;14.15;;
37905;SDS011;23739;51.448;6.674;2023-06-22T11:35:35;13.95;;;12.45;;
37905;SDS011;23739;51.448;6.674;2023-06-22T11:38:01;18.45;;;15.00;;
37905;SDS011;23739;51.448;6.674;2023-06-22T11:40:29;21.10;;;17.58;;
37905;SDS011;23739;51.448;6.674;2023-06-22T11:42:55;19.85;;;15.85;;
37905;SDS011;23739;51.448;6.674;2023-06-22T11:45:21;23.45;;;18.42;;
37905;SDS011;23739;51.448;6.674;2023-06-22T11:47:47;18.58;;;15.68;;
37905;SDS011;23739;51.448;6.674;2023-06-22T11:50:13;21.13;;;17.67;;
37905;SDS011;23739;51.448;6.674;2023-06-22T11:52:40;23.08;;;18.70;;
37905;SDS011;23739;51.448;6.674;2023-06-22T11:55:06;18.42;;;16.65;;
37905;SDS011;23739;51.448;6.674;2023-06-22T11:57:33;21.20;;;19.00;;
37905;SDS011;23739;51.448;6.674;2023-06-22T12:00:00;19.50;;;17.35;;
37905;SDS011;23739;51.448;6.674;2023-06-22T12:02:26;23.50;;;19.33;;
37905;SDS011;23739;51.448;6.674;2023-06-22T12:04:52;25.98;;;22.38;;
37905;SDS011;23739;51.448;6.674;2023-06-22T12:07:21;25.80;;;23.02;;
37905;SDS011;23739;51.448;6.674;2023-06-22T12:09:47;23.48;;;21.08;;
37905;SDS011;23739;51.448;6.674;2023-06-22T12:12:13;23.70;;;20.35;;
37905;SDS011;23739;51.448;6.674;2023-06-22T12:14:40;22.40;;;20.23;;
37905;SDS011;23739;51.448;6.674;2023-06-22T12:17:06;22.83;;;20.40;;
37905;SDS011;23739;51.448;6.674;2023-06-22T12:19:32;21.27;;;19.08;;
37905;SDS011;23739;51.448;6.674;2023-06-22T12:21:58;22.50;;;19.48;;
37905;SDS011;23739;51.448;6.674;2023-06-22T12:24:28;23.17;;;19.33;;
37905;SDS011;23739;51.448;6.674;2023-06-22T12:26:54;22.17;;;20.02;;
37905;SDS011;23739;51.448;6.674;2023-06-22T12:29:20;23.13;;;20.75;;
37905;SDS011;23739;51.448;6.674;2023-06-22T12:31:46;21.17;;;19.00;;
37905;SDS011;23739;51.448;6.674;2023-06-22T12:34:13;21.58;;;19.27;;
37905;SDS011;23739;51.448;6.674;2023-06-22T12:36:39;23.38;;;20.23;;
37905;SDS011;23739;51.448;6.674;2023-06-22T12:39:05;22.45;;;19.30;;
37905;SDS011;23739;51.448;6.674;2023-06-22T12:41:31;23.73;;;21.23;;
37905;SDS011;23739;51.448;6.674;2023-06-22T12:43:58;22.75;;;20.55;;
37905;SDS011;23739;51.448;6.674;2023-06-22T12:46:24;19.73;;;17.48;;
37905;SDS011;23739;51.448;6.674;2023-06-22T12:48:50;21.13;;;19.17;;
37905;SDS011;23739;51.448;6.674;2023-06-22T12:51:22;19.52;;;17.55;;
37905;SDS011;23739;51.448;6.674;2023-06-22T12:53:48;20.00;;;17.88;;
37905;SDS011;23739;51.448;6.674;2023-06-22T12:56:15;21.48;;;18.60;;
37905;SDS011;23739;51.448;6.674;2023-06-22T12:58:41;21.90;;;19.63;;
37905;SDS011;23739;51.448;6.674;2023-06-22T13:01:07;19.65;;;17.55;;
37905;SDS011;23739;51.448;6.674;2023-06-22T13:09:39;23.88;;;20.92;;
37905;SDS011;23739;51.448;6.674;2023-06-22T13:12:05;20.80;;;18.60;;
37905;SDS011;23739;51.448;6.674;2023-06-22T13:14:31;22.38;;;20.08;;
37905;SDS011;23739;51.448;6.674;2023-06-22T13:16:58;21.80;;;19.70;;
37905;SDS011;23739;51.448;6.674;2023-06-22T13:19:24;20.65;;;18.67;;
37905;SDS011;23739;51.448;6.674;2023-06-22T13:21:50;23.50;;;19.48;;
37905;SDS011;23739;51.448;6.674;2023-06-22T13:24:17;22.63;;;20.23;;
37905;SDS011;23739;51.448;6.674;2023-06-22T13:26:43;25.65;;;18.15;;
37905;SDS011;23739;51.448;6.674;2023-06-22T13:29:09;22.63;;;20.23;;
37905;SDS011;23739;51.448;6.674;2023-06-22T13:31:35;24.33;;;21.73;;
37905;SDS011;23739;51.448;6.674;2023-06-22T13:34:01;23.52;;;20.60;;
37905;SDS011;23739;51.448;6.674;2023-06-22T13:36:27;24.33;;;21.92;;
37905;SDS011;23739;51.448;6.674;2023-06-22T13:38:55;27.73;;;24.77;;
37905;SDS011;23739;51.448;6.674;2023-06-22T13:41:21;23.15;;;20.60;;
37905;SDS011;23739;51.448;6.674;2023-06-22T13:43:51;24.33;;;21.80;;
37905;SDS011;23739;51.448;6.674;2023-06-22T13:46:17;24.65;;;22.25;;
37905;SDS011;23739;51.448;6.674;2023-06-22T13:48:43;25.23;;;22.63;;
37905;SDS011;23739;51.448;6.674;2023-06-22T13:51:09;24.63;;;22.13;;
37905;SDS011;23739;51.448;6.674;2023-06-22T13:53:35;23.75;;;21.40;;
37905;SDS011;23739;51.448;6.674;2023-06-22T13:56:03;24.80;;;22.40;;
37905;SDS011;23739;51.448;6.674;2023-06-22T13:58:29;26.70;;;24.15;;
37905;SDS011;23739;51.448;6.674;2023-06-22T14:00:55;25.48;;;22.88;;
37905;SDS011;23739;51.448;6.674;2023-06-22T14:03:21;23.05;;;20.73;;
37905;SDS011;23739;51.448;6.674;2023-06-22T14:05:47;22.80;;;20.15;;
37905;SDS011;23739;51.448;6.674;2023-06-22T14:08:14;25.55;;;22.85;;
37905;SDS011;23739;51.448;6.674;2023-06-22T14:10:40;24.08;;;20.83;;
37905;SDS011;23739;51.448;6.674;2023-06-22T14:13:06;26.33;;;22.75;;
37905;SDS011;23739;51.448;6.674;2023-06-22T14:15:32;26.30;;;21.52;;
37905;SDS011;23739;51.448;6.674;2023-06-22T14:17:58;25.98;;;21.77;;
37905;SDS011;23739;51.448;6.674;2023-06-22T14:20:24;25.88;;;22.83;;
37905;SDS011;23739;51.448;6.674;2023-06-22T14:22:50;26.80;;;22.60;;
37905;SDS011;23739;51.448;6.674;2023-06-22T14:25:17;24.63;;;22.17;;
37905;SDS011;23739;51.448;6.674;2023-06-22T14:27:43;27.15;;;23.20;;
37905;SDS011;23739;51.448;6.674;2023-06-22T14:30:09;26.55;;;23.80;;
37905;SDS011;23739;51.448;6.674;2023-06-22T14:32:35;27.20;;;22.95;;
37905;SDS011;23739;51.448;6.674;2023-06-22T14:35:02;25.83;;;23.05;;
37905;SDS011;23739;51.448;6.674;2023-06-22T14:37:28;27.35;;;23.17;;
37905;SDS011;23739;51.448;6.674;2023-06-22T14:39:54;28.08;;;25.10;;